Sella Ness, United Kingdom
Current Conditions -  °F | °C
As of 4:20 AM on Wednesday 22 Oct 2014 (Local Time) from EGPM Reporting Station
Overcast Overcast  
Wind Chill: 38°   Ceiling: 3800
Heat Index: 45°   Visibility: 6mi
Dew Point: 34°   Wind: 14mph
Humidity: 66%   Direction: 300°WNW
Pressure: 29.77"   Gusts: NA
Location:  60.45°N, 1.27°W
Report Text: EGPM 220320Z AUTO 30012KT 9999 OVC038/// 07/01 Q1008
Loading
Personal Weather Stations






























Interactive Weather Map
Tropical Storm Tracking
New forecast layout! Learn more

10-Day Weather Forecast

Advertisements
Track Severe Weather on mobile